createdAt,value
2022-08-03T00:02:50.684Z,10.48
2022-08-03T00:06:03.939Z,9.52
2022-08-03T00:09:09.377Z,15.20
2022-08-03T00:12:13.663Z,9.90
2022-08-03T00:15:18.025Z,11.15
2022-08-03T00:18:22.137Z,8.75
2022-08-03T00:21:26.239Z,9.25
2022-08-03T00:24:31.366Z,9.48
2022-08-03T00:27:35.518Z,7.60
2022-08-03T00:30:39.773Z,8.35
2022-08-03T00:33:59.132Z,9.38
2022-08-03T00:37:03.789Z,9.25
2022-08-03T00:40:08.769Z,10.10
2022-08-03T00:43:12.607Z,8.57
2022-08-03T00:46:21.332Z,13.73
2022-08-03T00:49:25.837Z,8.90
2022-08-03T00:52:29.945Z,10.18
2022-08-03T00:55:35.928Z,12.20
2022-08-03T00:58:39.931Z,9.65
2022-08-03T01:01:44.229Z,9.68
2022-08-03T01:04:48.307Z,13.80
2022-08-03T01:08:14.235Z,9.32
2022-08-03T01:11:29.886Z,9.30
2022-08-03T01:14:54.100Z,6.82
2022-08-03T01:18:16.963Z,8.43
2022-08-03T01:21:33.191Z,12.85
2022-08-03T01:24:49.099Z,9.20
2022-08-03T01:28:27.078Z,9.18
2022-08-03T01:32:59.812Z,15.88
2022-08-03T01:35:28.056Z,11.52
2022-08-03T01:38:38.606Z,11.13
2022-08-03T01:41:49.220Z,9.35
2022-08-03T01:44:53.992Z,18.00
2022-08-03T01:47:59.075Z,12.38
2022-08-03T01:51:04.590Z,14.05
2022-08-03T01:54:12.664Z,13.73
2022-08-03T01:57:19.784Z,12.77
2022-08-03T02:00:25.370Z,8.02
2022-08-03T02:03:31.803Z,16.48
2022-08-03T02:07:00.578Z,14.63
2022-08-03T02:10:05.312Z,10.48
2022-08-03T02:13:10.552Z,11.77
2022-08-03T02:16:14.832Z,14.60
2022-08-03T02:19:19.564Z,12.23
2022-08-03T02:22:25.009Z,15.30
2022-08-03T02:25:30.351Z,14.65
2022-08-03T02:28:41.467Z,12.27
2022-08-03T02:31:46.430Z,8.77
2022-08-03T02:34:52.950Z,13.50
2022-08-03T02:38:02.209Z,14.05
2022-08-03T02:41:13.509Z,12.38
2022-08-03T02:44:20.853Z,14.38
2022-08-03T02:47:27.648Z,10.23
2022-08-03T02:50:33.936Z,13.20
2022-08-03T02:53:39.969Z,9.73
2022-08-03T02:56:45.190Z,14.13
2022-08-03T02:59:50.498Z,11.85
2022-08-03T03:02:57.817Z,12.98
2022-08-03T03:06:05.600Z,12.27
2022-08-03T03:09:10.865Z,14.75
2022-08-03T03:12:17.089Z,11.98
2022-08-03T03:15:23.172Z,15.85
2022-08-03T03:18:29.385Z,16.33
2022-08-03T03:21:33.881Z,17.65
2022-08-03T03:24:39.707Z,16.85
2022-08-03T03:27:43.691Z,13.35
2022-08-03T03:30:53.743Z,16.20
2022-08-03T03:33:58.402Z,11.05
2022-08-03T03:37:02.657Z,13.98
2022-08-03T03:40:08.950Z,11.38
2022-08-03T03:43:13.752Z,14.07
2022-08-03T03:46:18.348Z,10.95
2022-08-03T03:49:22.492Z,14.18
2022-08-03T03:52:26.589Z,15.63
2022-08-03T03:55:31.124Z,13.77
2022-08-03T03:58:35.175Z,10.32
2022-08-03T04:01:39.497Z,11.68
2022-08-03T04:05:01.893Z,14.10
2022-08-03T04:08:36.157Z,10.60
2022-08-03T04:11:47.512Z,10.40
2022-08-03T04:14:56.753Z,12.05
2022-08-03T04:18:02.671Z,13.45
2022-08-03T04:21:11.233Z,18.20
2022-08-03T04:24:16.140Z,14.48
2022-08-03T04:27:28.623Z,12.52
2022-08-03T04:30:36.074Z,18.85
2022-08-03T04:33:41.791Z,13.85
2022-08-03T04:36:49.885Z,14.73
2022-08-03T04:39:57.814Z,15.88
2022-08-03T04:43:03.270Z,21.63
2022-08-03T04:46:08.190Z,13.57
2022-08-03T04:49:12.659Z,16.70
2022-08-03T04:52:17.389Z,15.98
2022-08-03T04:55:32.600Z,13.13
2022-08-03T04:58:36.395Z,11.10
2022-08-03T05:01:42.128Z,13.35
2022-08-03T05:04:46.865Z,15.80
2022-08-03T05:07:51.231Z,12.65
2022-08-03T05:10:58.931Z,17.52
2022-08-03T05:14:03.441Z,13.85
2022-08-03T05:17:08.144Z,15.27
2022-08-03T05:20:12.470Z,16.75
2022-08-03T05:23:16.469Z,18.80
2022-08-03T05:26:20.749Z,15.65
2022-08-03T05:29:25.077Z,14.52
2022-08-03T05:32:29.114Z,14.18
2022-08-03T05:35:55.952Z,14.43
2022-08-03T05:39:02.596Z,17.15
2022-08-03T05:42:06.957Z,16.98
2022-08-03T05:45:14.934Z,20.08
2022-08-03T05:48:18.797Z,11.68
2022-08-03T05:51:23.481Z,13.30
2022-08-03T05:54:56.819Z,13.95
2022-08-03T05:57:51.923Z,11.80
2022-08-03T06:00:59.570Z,18.05
2022-08-03T06:04:03.834Z,15.75
2022-08-03T06:07:07.798Z,11.00
2022-08-03T06:10:36.611Z,11.10
2022-08-03T06:13:36.051Z,12.77
2022-08-03T06:16:40.520Z,17.02
2022-08-03T06:19:44.630Z,12.55
2022-08-03T06:22:51.056Z,14.98
2022-08-03T06:26:04.995Z,15.07
2022-08-03T06:29:09.031Z,12.38
2022-08-03T06:32:14.225Z,13.55
2022-08-03T06:35:18.750Z,12.60
2022-08-03T06:38:23.200Z,13.40
2022-08-03T06:41:28.047Z,10.27
2022-08-03T06:44:32.105Z,10.50
2022-08-03T06:47:37.282Z,12.60
2022-08-03T06:50:42.608Z,16.45
2022-08-03T06:53:46.772Z,9.40
2022-08-03T06:56:50.599Z,11.35
2022-08-03T07:00:09.679Z,10.68
2022-08-03T07:03:15.912Z,8.85
2022-08-03T07:06:20.354Z,11.98
2022-08-03T07:09:26.376Z,11.93
2022-08-03T07:12:31.714Z,12.25
2022-08-03T07:15:53.921Z,15.25
2022-08-03T07:18:59.269Z,9.10
2022-08-03T07:22:04.265Z,12.98
2022-08-03T07:25:09.442Z,11.05
2022-08-03T07:28:13.471Z,7.95
2022-08-03T07:31:17.320Z,8.43
2022-08-03T07:34:21.355Z,9.77
2022-08-03T07:37:25.601Z,9.82
2022-08-03T07:40:31.730Z,8.55
2022-08-03T07:43:36.410Z,12.77
2022-08-03T07:46:40.325Z,11.57
2022-08-03T07:49:44.585Z,7.03
2022-08-03T07:52:50.093Z,11.35
2022-08-03T07:55:54.599Z,8.43
2022-08-03T07:58:59.773Z,7.75
2022-08-03T08:02:03.892Z,11.13
2022-08-03T08:05:08.436Z,11.95
2022-08-03T08:08:12.207Z,12.88
2022-08-03T08:11:16.264Z,9.75
2022-08-03T08:14:20.566Z,15.20
2022-08-03T08:17:24.997Z,12.20
2022-08-03T08:20:32.360Z,16.30
2022-08-03T08:23:43.096Z,12.45
2022-08-03T08:26:49.478Z,12.65
2022-08-03T08:29:56.343Z,15.77
2022-08-03T08:33:03.202Z,10.77
2022-08-03T08:36:09.924Z,9.38
2022-08-03T08:39:17.839Z,8.38
2022-08-03T08:42:23.638Z,9.95
2022-08-03T08:45:27.808Z,10.43
2022-08-03T08:48:32.254Z,8.40
2022-08-03T08:51:50.547Z,13.70
2022-08-03T08:55:06.917Z,8.35
2022-08-03T08:58:12.994Z,6.40
2022-08-03T09:01:25.706Z,13.10
2022-08-03T09:04:30.750Z,5.45
2022-08-03T09:07:35.005Z,8.85
2022-08-03T09:10:38.855Z,9.32
2022-08-03T09:13:42.918Z,6.60
2022-08-03T09:17:04.696Z,10.88
2022-08-03T09:20:09.865Z,6.40
2022-08-03T09:23:59.685Z,8.73
2022-08-03T09:26:38.585Z,5.72
2022-08-03T09:29:48.635Z,5.18
2022-08-03T09:33:00.672Z,7.63
2022-08-03T09:36:05.140Z,6.60
2022-08-03T09:39:11.966Z,4.70
2022-08-03T09:42:18.373Z,5.80
2022-08-03T09:45:29.988Z,2.88
2022-08-03T09:48:35.462Z,2.85
2022-08-03T09:52:39.352Z,4.18
2022-08-03T09:56:32.818Z,4.32
2022-08-03T09:58:46.432Z,8.73
2022-08-03T10:01:50.414Z,5.68
2022-08-03T10:04:54.609Z,7.10
2022-08-03T10:07:58.577Z,10.43
2022-08-03T10:11:02.612Z,5.78
2022-08-03T10:14:08.783Z,3.58
2022-08-03T10:17:13.732Z,2.80
2022-08-03T10:20:18.055Z,5.68
2022-08-03T10:23:22.880Z,8.48
2022-08-03T10:26:30.248Z,7.15
2022-08-03T10:29:38.989Z,4.13
2022-08-03T10:32:59.970Z,6.85
2022-08-03T10:36:07.419Z,5.55
2022-08-03T10:39:16.139Z,8.82
2022-08-03T10:42:27.106Z,6.22
2022-08-03T10:45:35.435Z,4.93
2022-08-03T10:48:39.498Z,6.03
2022-08-03T10:51:45.851Z,6.47
2022-08-03T10:55:10.072Z,4.05
2022-08-03T10:58:15.261Z,4.20
2022-08-03T11:01:59.144Z,5.72
2022-08-03T11:05:30.642Z,4.38
2022-08-03T11:08:34.951Z,3.80
2022-08-03T11:11:43.421Z,5.93
2022-08-03T11:14:48.898Z,5.10
2022-08-03T11:18:12.321Z,5.22
2022-08-03T11:21:16.834Z,5.05
2022-08-03T11:24:36.310Z,7.75
2022-08-03T11:27:40.133Z,3.92
2022-08-03T11:30:44.148Z,6.40
2022-08-03T11:34:07.797Z,4.90
2022-08-03T11:37:27.494Z,4.55
2022-08-03T11:40:41.451Z,5.97
2022-08-03T11:43:45.981Z,5.72
2022-08-03T11:46:50.346Z,5.63
2022-08-03T11:50:00.252Z,6.95
2022-08-03T11:53:06.951Z,8.10
2022-08-03T11:56:12.623Z,6.03
2022-08-03T11:59:21.826Z,3.20
2022-08-03T12:02:27.318Z,6.07
2022-08-03T12:05:38.551Z,4.35
2022-08-03T12:08:45.077Z,6.03
2022-08-03T12:12:00.263Z,11.70
2022-08-03T12:15:06.113Z,6.40
2022-08-03T12:18:15.630Z,5.32
2022-08-03T12:21:24.290Z,4.13
2022-08-03T12:24:41.259Z,7.20
2022-08-03T12:27:45.584Z,3.45
2022-08-03T12:30:51.752Z,4.00
2022-08-03T12:34:05.052Z,5.95
2022-08-03T12:37:22.255Z,7.15
2022-08-03T12:40:28.376Z,10.30
2022-08-03T12:43:36.587Z,3.80
2022-08-03T12:46:47.673Z,10.40
2022-08-03T12:49:54.220Z,9.10
2022-08-03T12:52:58.808Z,4.68
2022-08-03T12:56:06.084Z,10.70
2022-08-03T12:59:35.417Z,5.78
2022-08-03T13:02:46.465Z,9.48
2022-08-03T13:05:50.607Z,3.63
2022-08-03T13:09:06.642Z,8.23
2022-08-03T13:12:20.967Z,6.05
2022-08-03T13:15:26.645Z,6.60
2022-08-03T13:18:37.721Z,5.03
2022-08-03T13:22:01.905Z,5.72
2022-08-03T13:25:06.598Z,6.22
2022-08-03T13:28:14.152Z,3.95
2022-08-03T13:31:18.644Z,5.93
2022-08-03T13:34:24.243Z,7.50
2022-08-03T13:37:29.412Z,5.30
2022-08-03T13:40:41.459Z,5.00
2022-08-03T13:46:50.682Z,5.50
2022-08-03T13:49:59.632Z,7.18
2022-08-03T13:53:04.553Z,4.15
2022-08-03T13:56:08.595Z,8.20
2022-08-03T13:59:12.453Z,6.55
2022-08-03T14:02:16.498Z,5.15
2022-08-03T14:05:20.901Z,4.55
2022-08-03T14:08:25.191Z,9.35
2022-08-03T14:12:06.841Z,7.15
2022-08-03T14:14:53.053Z,6.10
2022-08-03T14:17:58.564Z,3.33
2022-08-03T14:21:06.755Z,6.85
2022-08-03T14:24:10.901Z,4.07
2022-08-03T14:27:14.813Z,3.63
2022-08-03T14:30:19.492Z,8.32
2022-08-03T14:33:24.335Z,3.08
2022-08-03T14:36:28.246Z,6.30
2022-08-03T14:42:56.349Z,4.80
2022-08-03T14:46:00.685Z,7.22
2022-08-03T14:50:38.545Z,4.53
2022-08-03T14:52:30.074Z,5.18
2022-08-03T14:55:35.082Z,2.03
2022-08-03T14:58:43.500Z,6.30
2022-08-03T15:02:04.903Z,3.03
2022-08-03T15:05:12.653Z,7.63
2022-08-03T15:08:16.718Z,3.78
2022-08-03T15:11:20.760Z,4.00
2022-08-03T15:14:33.239Z,3.03
2022-08-03T15:17:42.849Z,8.27
2022-08-03T15:20:48.968Z,6.20
2022-08-03T15:23:54.111Z,3.72
2022-08-03T15:26:58.695Z,4.78
2022-08-03T15:30:10.116Z,4.57
2022-08-03T15:33:14.585Z,3.97
2022-08-03T15:36:19.030Z,6.03
2022-08-03T15:39:22.896Z,2.38
2022-08-03T15:42:32.726Z,6.65
2022-08-03T15:45:37.430Z,5.05
2022-08-03T15:48:41.648Z,7.22
2022-08-03T15:51:45.546Z,5.88
2022-08-03T15:54:49.464Z,6.65
2022-08-03T15:59:03.570Z,3.22
2022-08-03T16:01:20.314Z,6.10
2022-08-03T16:04:24.345Z,7.45
2022-08-03T16:08:03.167Z,7.15
2022-08-03T16:11:08.977Z,5.75
2022-08-03T16:14:34.475Z,5.53
2022-08-03T16:17:38.379Z,5.15
2022-08-03T16:20:43.229Z,4.13
2022-08-03T16:23:48.176Z,6.55
2022-08-03T16:26:52.026Z,8.65
2022-08-03T16:29:55.837Z,5.43
2022-08-03T16:32:59.848Z,4.55
2022-08-03T16:36:04.105Z,5.85
2022-08-03T16:39:08.297Z,5.40
2022-08-03T16:42:12.174Z,5.55
2022-08-03T16:45:16.372Z,4.32
2022-08-03T16:48:20.734Z,2.92
2022-08-03T16:51:24.849Z,2.85
2022-08-03T16:54:44.686Z,8.05
2022-08-03T16:57:59.710Z,8.43
2022-08-03T17:01:20.964Z,3.72
2022-08-03T17:04:28.438Z,5.38
2022-08-03T17:07:33.305Z,7.97
2022-08-03T17:10:37.837Z,4.65
2022-08-03T17:13:44.099Z,4.97
2022-08-03T17:16:53.771Z,3.42
2022-08-03T17:19:59.905Z,4.75
2022-08-03T17:23:34.431Z,8.07
2022-08-03T17:26:45.755Z,6.55
2022-08-03T17:30:00.986Z,11.52
2022-08-03T17:33:06.660Z,7.50
2022-08-03T17:36:37.027Z,7.47
2022-08-03T17:39:58.808Z,6.03
2022-08-03T17:44:13.974Z,5.32
2022-08-03T17:46:27.497Z,8.02
2022-08-03T17:49:39.773Z,13.23
2022-08-03T17:56:44.772Z,3.05
2022-08-03T18:00:27.017Z,5.05
2022-08-03T18:03:58.803Z,4.30
2022-08-03T18:07:11.556Z,6.47
2022-08-03T18:10:22.936Z,3.58
2022-08-03T18:13:31.205Z,6.28
2022-08-03T18:16:43.718Z,8.85
2022-08-03T18:20:00.944Z,6.23
2022-08-03T18:23:09.718Z,5.15
2022-08-03T18:26:16.212Z,3.78
2022-08-03T18:29:22.355Z,5.38
2022-08-03T18:32:27.736Z,8.90
2022-08-03T18:35:53.589Z,10.93
2022-08-03T18:38:59.969Z,5.03
2022-08-03T18:42:07.759Z,6.88
2022-08-03T18:45:57.141Z,6.65
2022-08-03T18:49:21.646Z,4.93
2022-08-03T18:52:37.331Z,6.78
2022-08-03T18:56:01.897Z,6.60
2022-08-03T18:59:30.080Z,7.07
2022-08-03T19:02:51.461Z,4.85
2022-08-03T19:06:09.479Z,7.38
2022-08-03T19:09:37.242Z,7.85
2022-08-03T19:12:58.915Z,8.82
2022-08-03T19:16:11.910Z,6.78
2022-08-03T19:19:18.978Z,11.10
2022-08-03T19:22:27.136Z,7.78
2022-08-03T19:25:35.297Z,7.68
2022-08-03T19:28:41.003Z,5.82
2022-08-03T19:31:58.992Z,8.32
2022-08-03T19:35:13.357Z,5.85
2022-08-03T19:38:29.292Z,7.75
2022-08-03T19:41:41.955Z,8.55
2022-08-03T19:44:51.161Z,8.20
2022-08-03T19:48:09.954Z,9.35
2022-08-03T19:51:14.439Z,6.53
2022-08-03T19:54:29.402Z,6.85
2022-08-03T19:57:35.812Z,4.97
2022-08-03T20:00:40.299Z,5.18
2022-08-03T20:06:58.205Z,9.15
2022-08-03T20:10:05.906Z,7.32
2022-08-03T20:13:09.877Z,9.00
2022-08-03T20:16:14.062Z,6.85
2022-08-03T20:19:21.417Z,9.73
2022-08-03T20:22:27.909Z,9.25
2022-08-03T20:25:39.445Z,8.30
2022-08-03T20:28:56.675Z,6.85
2022-08-03T20:32:01.380Z,6.55
2022-08-03T20:35:05.699Z,6.30
2022-08-03T20:38:14.361Z,7.63
2022-08-03T20:41:19.791Z,9.07
2022-08-03T20:44:25.749Z,7.93
2022-08-03T20:47:30.818Z,8.82
2022-08-03T20:50:38.954Z,10.15
2022-08-03T20:53:59.549Z,7.45
2022-08-03T20:57:07.110Z,9.00
2022-08-03T21:00:16.621Z,8.10
2022-08-03T21:03:20.909Z,6.63
2022-08-03T21:06:31.431Z,7.85
2022-08-03T21:09:49.400Z,7.75
2022-08-03T21:13:15.880Z,8.35
2022-08-03T21:16:26.858Z,8.20
2022-08-03T21:19:32.746Z,13.70
2022-08-03T21:22:45.258Z,7.70
2022-08-03T21:25:50.541Z,7.20
2022-08-03T21:28:56.460Z,9.88
2022-08-03T21:32:01.142Z,11.27
2022-08-03T21:35:06.897Z,10.85
2022-08-03T21:38:19.781Z,8.18
2022-08-03T21:41:29.854Z,6.90
2022-08-03T21:44:34.090Z,8.73
2022-08-03T21:47:41.894Z,6.60
2022-08-03T21:50:49.768Z,7.03
2022-08-03T21:54:03.020Z,8.52
2022-08-03T21:57:13.907Z,9.48
2022-08-03T22:00:20.800Z,7.43
2022-08-03T22:03:26.951Z,8.23
2022-08-03T22:06:31.928Z,10.32
2022-08-03T22:09:36.850Z,10.02
2022-08-03T22:12:41.949Z,10.13
2022-08-03T22:15:47.811Z,11.43
2022-08-03T22:18:52.134Z,7.68
2022-08-03T22:21:56.481Z,8.85
2022-08-03T22:25:21.233Z,9.18
2022-08-03T22:28:30.514Z,7.68
2022-08-03T22:31:57.434Z,7.55
2022-08-03T22:35:04.148Z,7.30
2022-08-03T22:38:09.949Z,10.73
2022-08-03T22:41:15.706Z,8.98
2022-08-03T22:44:19.613Z,13.15
2022-08-03T22:47:24.168Z,9.00
2022-08-03T22:50:31.375Z,10.63
2022-08-03T22:53:38.933Z,12.45
2022-08-03T22:56:46.383Z,7.07
2022-08-03T22:59:50.477Z,10.38
2022-08-03T23:02:56.806Z,9.30
2022-08-03T23:06:03.603Z,10.45
2022-08-03T23:09:11.322Z,11.95
2022-08-03T23:12:20.102Z,9.20
2022-08-03T23:15:27.463Z,7.50
2022-08-03T23:18:37.356Z,9.93
2022-08-03T23:21:53.676Z,11.18
2022-08-03T23:25:05.979Z,10.02
2022-08-03T23:28:15.049Z,13.32
2022-08-03T23:31:21.509Z,9.50
2022-08-03T23:34:45.518Z,13.30
2022-08-03T23:38:22.276Z,9.13
2022-08-03T23:41:17.655Z,10.95
2022-08-03T23:44:23.122Z,9.35
2022-08-03T23:47:47.299Z,12.93
2022-08-03T23:50:59.049Z,12.50
2022-08-03T23:54:05.527Z,7.70
2022-08-03T23:57:18.672Z,9.75
